sensor_id;sensor_type;location;lat;lon;timestamp;pressure;altitude;pressure_sealevel;temperature;humidity
45403;BME280;47427;51.976;5.326;2023-05-14T00:02:12;101943.41;;;12.55;94.94
45403;BME280;47427;51.976;5.326;2023-05-14T00:05:35;101945.09;;;12.53;95.45
45403;BME280;47427;51.976;5.326;2023-05-14T00:08:58;101950.22;;;12.50;95.99
45403;BME280;47427;51.976;5.326;2023-05-14T00:12:19;101939.50;;;12.44;96.23
45403;BME280;47427;51.976;5.326;2023-05-14T00:15:42;101931.53;;;12.43;96.76
45403;BME280;47427;51.976;5.326;2023-05-14T00:19:03;101929.66;;;12.39;97.63
45403;BME280;47427;51.976;5.326;2023-05-14T00:22:26;101929.47;;;12.34;97.36
45403;BME280;47427;51.976;5.326;2023-05-14T00:25:49;101928.69;;;12.36;98.12
45403;BME280;47427;51.976;5.326;2023-05-14T00:29:10;101928.88;;;12.41;97.88
45403;BME280;47427;51.976;5.326;2023-05-14T00:32:33;101916.81;;;12.48;98.12
45403;BME280;47427;51.976;5.326;2023-05-14T00:35:56;101922.31;;;12.54;97.69
45403;BME280;47427;51.976;5.326;2023-05-14T00:39:17;101918.09;;;12.59;97.26
45403;BME280;47427;51.976;5.326;2023-05-14T00:42:40;101913.03;;;12.65;97.18
45403;BME280;47427;51.976;5.326;2023-05-14T00:46:03;101915.09;;;12.74;96.54
45403;BME280;47427;51.976;5.326;2023-05-14T00:49:26;101917.03;;;12.79;96.16
45403;BME280;47427;51.976;5.326;2023-05-14T00:52:49;101912.81;;;12.85;95.93
45403;BME280;47427;51.976;5.326;2023-05-14T00:56:10;101903.25;;;12.87;95.69
45403;BME280;47427;51.976;5.326;2023-05-14T00:59:34;101904.06;;;12.86;96.01
45403;BME280;47427;51.976;5.326;2023-05-14T01:02:57;101899.56;;;12.82;96.28
45403;BME280;47427;51.976;5.326;2023-05-14T01:10:07;101905.66;;;12.55;97.30
45403;BME280;47427;51.976;5.326;2023-05-14T01:17:31;101888.25;;;12.34;99.09
45403;BME280;47427;51.976;5.326;2023-05-14T01:20:54;101891.63;;;12.30;99.76
45403;BME280;47427;51.976;5.326;2023-05-14T01:24:17;101890.53;;;12.24;100.00
45403;BME280;47427;51.976;5.326;2023-05-14T01:31:21;101896.81;;;12.05;100.00
45403;BME280;47427;51.976;5.326;2023-05-14T01:34:49;101894.66;;;11.93;100.00
45403;BME280;47427;51.976;5.326;2023-05-14T01:38:13;101901.41;;;11.86;100.00
45403;BME280;47427;51.976;5.326;2023-05-14T01:41:39;101889.38;;;11.70;100.00
45403;BME280;47427;51.976;5.326;2023-05-14T01:45:02;101891.06;;;11.68;100.00
45403;BME280;47427;51.976;5.326;2023-05-14T01:48:24;101899.53;;;11.61;100.00
45403;BME280;47427;51.976;5.326;2023-05-14T01:51:47;101898.53;;;11.58;100.00
45403;BME280;47427;51.976;5.326;2023-05-14T01:55:10;101903.38;;;11.47;100.00
45403;BME280;47427;51.976;5.326;2023-05-14T01:58:31;101904.00;;;11.41;100.00
45403;BME280;47427;51.976;5.326;2023-05-14T02:01:55;101902.88;;;11.35;100.00
45403;BME280;47427;51.976;5.326;2023-05-14T02:05:18;101891.53;;;11.36;100.00
45403;BME280;47427;51.976;5.326;2023-05-14T02:08:39;101892.31;;;11.33;100.00
45403;BME280;47427;51.976;5.326;2023-05-14T02:12:02;101888.72;;;11.31;100.00
45403;BME280;47427;51.976;5.326;2023-05-14T02:15:24;101892.69;;;11.21;100.00
45403;BME280;47427;51.976;5.326;2023-05-14T02:18:47;101885.59;;;11.19;100.00
45403;BME280;47427;51.976;5.326;2023-05-14T02:22:28;101888.22;;;11.19;100.00
45403;BME280;47427;51.976;5.326;2023-05-14T02:25:51;101879.41;;;11.17;100.00
45403;BME280;47427;51.976;5.326;2023-05-14T02:29:34;101873.84;;;11.09;100.00
45403;BME280;47427;51.976;5.326;2023-05-14T02:32:56;101875.50;;;11.07;100.00
45403;BME280;47427;51.976;5.326;2023-05-14T02:36:19;101874.47;;;11.03;100.00
45403;BME280;47427;51.976;5.326;2023-05-14T02:39:42;101876.28;;;11.04;100.00
45403;BME280;47427;51.976;5.326;2023-05-14T02:43:03;101869.88;;;10.98;100.00
45403;BME280;47427;51.976;5.326;2023-05-14T02:46:26;101866.47;;;11.00;100.00
45403;BME280;47427;51.976;5.326;2023-05-14T02:49:50;101867.56;;;11.05;100.00
45403;BME280;47427;51.976;5.326;2023-05-14T02:53:12;101873.56;;;11.03;100.00
45403;BME280;47427;51.976;5.326;2023-05-14T02:56:35;101876.94;;;10.99;100.00
45403;BME280;47427;51.976;5.326;2023-05-14T02:59:56;101869.63;;;10.92;100.00
45403;BME280;47427;51.976;5.326;2023-05-14T03:03:19;101866.69;;;10.84;100.00
45403;BME280;47427;51.976;5.326;2023-05-14T03:06:42;101862.00;;;10.77;100.00
45403;BME280;47427;51.976;5.326;2023-05-14T03:10:04;101868.81;;;10.72;100.00
45403;BME280;47427;51.976;5.326;2023-05-14T03:13:27;101869.50;;;10.68;100.00
45403;BME280;47427;51.976;5.326;2023-05-14T03:16:49;101869.13;;;10.58;100.00
45403;BME280;47427;51.976;5.326;2023-05-14T03:20:12;101868.84;;;10.52;100.00
45403;BME280;47427;51.976;5.326;2023-05-14T03:23:35;101865.78;;;10.41;100.00
45403;BME280;47427;51.976;5.326;2023-05-14T03:26:56;101864.59;;;10.35;100.00
45403;BME280;47427;51.976;5.326;2023-05-14T03:30:19;101864.34;;;10.29;100.00
45403;BME280;47427;51.976;5.326;2023-05-14T03:33:43;101863.13;;;10.22;100.00
45403;BME280;47427;51.976;5.326;2023-05-14T03:37:04;101857.69;;;10.17;100.00
45403;BME280;47427;51.976;5.326;2023-05-14T03:40:27;101853.06;;;10.12;100.00
45403;BME280;47427;51.976;5.326;2023-05-14T03:43:49;101853.97;;;10.12;100.00
45403;BME280;47427;51.976;5.326;2023-05-14T03:47:11;101861.78;;;10.11;100.00
45403;BME280;47427;51.976;5.326;2023-05-14T03:50:34;101849.31;;;10.05;100.00
45403;BME280;47427;51.976;5.326;2023-05-14T03:53:56;101856.31;;;10.06;100.00
45403;BME280;47427;51.976;5.326;2023-05-14T03:57:19;101856.31;;;10.06;100.00
45403;BME280;47427;51.976;5.326;2023-05-14T04:00:42;101852.06;;;10.08;100.00
45403;BME280;47427;51.976;5.326;2023-05-14T04:04:05;101854.72;;;10.10;100.00
45403;BME280;47427;51.976;5.326;2023-05-14T04:07:28;101849.31;;;10.05;100.00
45403;BME280;47427;51.976;5.326;2023-05-14T04:10:50;101849.44;;;10.08;100.00
45403;BME280;47427;51.976;5.326;2023-05-14T04:14:13;101843.97;;;10.04;100.00
45403;BME280;47427;51.976;5.326;2023-05-14T04:17:36;101843.00;;;10.02;100.00
45403;BME280;47427;51.976;5.326;2023-05-14T04:20:58;101844.84;;;10.04;100.00
45403;BME280;47427;51.976;5.326;2023-05-14T04:24:21;101845.91;;;10.08;100.00
45403;BME280;47427;51.976;5.326;2023-05-14T04:27:43;101846.03;;;10.11;100.00
45403;BME280;47427;51.976;5.326;2023-05-14T04:31:05;101833.75;;;10.10;100.00
45403;BME280;47427;51.976;5.326;2023-05-14T04:34:26;101842.09;;;10.20;100.00
45403;BME280;47427;51.976;5.326;2023-05-14T04:37:48;101842.50;;;10.30;100.00
45403;BME280;47427;51.976;5.326;2023-05-14T04:41:10;101845.53;;;10.39;100.00
45403;BME280;47427;51.976;5.326;2023-05-14T04:44:34;101844.22;;;10.49;100.00
45403;BME280;47427;51.976;5.326;2023-05-14T04:47:55;101841.91;;;10.56;100.00
45403;BME280;47427;51.976;5.326;2023-05-14T04:51:18;101843.13;;;10.65;100.00
45403;BME280;47427;51.976;5.326;2023-05-14T04:54:41;101844.34;;;10.73;100.00
45403;BME280;47427;51.976;5.326;2023-05-14T04:58:02;101851.75;;;10.83;100.00
45403;BME280;47427;51.976;5.326;2023-05-14T05:01:25;101854.88;;;10.95;100.00
45403;BME280;47427;51.976;5.326;2023-05-14T05:04:48;101854.63;;;11.10;100.00
45403;BME280;47427;51.976;5.326;2023-05-14T05:08:09;101848.19;;;11.24;100.00
45403;BME280;47427;51.976;5.326;2023-05-14T05:11:51;101847.34;;;11.25;100.00
45403;BME280;47427;51.976;5.326;2023-05-14T05:15:14;101865.81;;;11.27;100.00
45403;BME280;47427;51.976;5.326;2023-05-14T05:18:37;101852.97;;;11.35;100.00
45403;BME280;47427;51.976;5.326;2023-05-14T05:22:00;101848.78;;;11.40;100.00
45403;BME280;47427;51.976;5.326;2023-05-14T05:25:22;101865.25;;;11.58;100.00
45403;BME280;47427;51.976;5.326;2023-05-14T05:28:44;101864.94;;;11.73;100.00
45403;BME280;47427;51.976;5.326;2023-05-14T05:32:07;101853.41;;;11.92;100.00
45403;BME280;47427;51.976;5.326;2023-05-14T05:35:29;101851.78;;;12.20;100.00
45403;BME280;47427;51.976;5.326;2023-05-14T05:38:52;101855.44;;;12.49;100.00
45403;BME280;47427;51.976;5.326;2023-05-14T05:42:13;101859.03;;;12.78;100.00
45403;BME280;47427;51.976;5.326;2023-05-14T05:45:36;101864.50;;;13.11;100.00
45403;BME280;47427;51.976;5.326;2023-05-14T05:48:59;101867.88;;;13.33;100.00
45403;BME280;47427;51.976;5.326;2023-05-14T05:52:20;101860.44;;;13.48;100.00
45403;BME280;47427;51.976;5.326;2023-05-14T05:55:43;101869.78;;;13.67;100.00
45403;BME280;47427;51.976;5.326;2023-05-14T05:59:05;101861.44;;;13.82;100.00
45403;BME280;47427;51.976;5.326;2023-05-14T06:02:27;101861.00;;;13.97;100.00
45403;BME280;47427;51.976;5.326;2023-05-14T06:05:50;101869.97;;;14.03;100.00
45403;BME280;47427;51.976;5.326;2023-05-14T06:09:13;101871.84;;;14.07;100.00
45403;BME280;47427;51.976;5.326;2023-05-14T06:12:37;101871.97;;;14.12;100.00
45403;BME280;47427;51.976;5.326;2023-05-14T06:16:00;101870.50;;;14.22;100.00
45403;BME280;47427;51.976;5.326;2023-05-14T06:19:22;101861.03;;;14.30;100.00
45403;BME280;47427;51.976;5.326;2023-05-14T06:22:44;101874.88;;;14.53;100.00
45403;BME280;47427;51.976;5.326;2023-05-14T06:26:07;101876.00;;;14.63;100.00
45403;BME280;47427;51.976;5.326;2023-05-14T06:29:28;101883.44;;;14.78;100.00
45403;BME280;47427;51.976;5.326;2023-05-14T06:32:51;101880.75;;;14.76;100.00
45403;BME280;47427;51.976;5.326;2023-05-14T06:36:34;101877.34;;;14.80;100.00
45403;BME280;47427;51.976;5.326;2023-05-14T06:39:55;101891.00;;;14.99;100.00
45403;BME280;47427;51.976;5.326;2023-05-14T06:43:18;101875.88;;;15.28;100.00
45403;BME280;47427;51.976;5.326;2023-05-14T06:46:40;101874.16;;;15.69;100.00
45403;BME280;47427;51.976;5.326;2023-05-14T06:50:03;101858.34;;;16.13;100.00
45403;BME280;47427;51.976;5.326;2023-05-14T06:53:25;101863.09;;;16.31;100.00
45403;BME280;47427;51.976;5.326;2023-05-14T06:56:47;101867.81;;;16.49;100.00
45403;BME280;47427;51.976;5.326;2023-05-14T07:00:10;101869.81;;;16.62;100.00
45403;BME280;47427;51.976;5.326;2023-05-14T07:03:33;101861.25;;;16.77;100.00
45403;BME280;47427;51.976;5.326;2023-05-14T07:06:56;101863.63;;;17.12;99.01
45403;BME280;47427;51.976;5.326;2023-05-14T07:10:18;101869.69;;;17.05;97.50
45403;BME280;47427;51.976;5.326;2023-05-14T07:13:40;101866.03;;;16.98;97.04
45403;BME280;47427;51.976;5.326;2023-05-14T07:17:03;101860.34;;;17.31;96.16
45403;BME280;47427;51.976;5.326;2023-05-14T07:20:44;101858.94;;;18.27;92.14
45403;BME280;47427;51.976;5.326;2023-05-14T07:24:07;101851.44;;;20.26;83.64
45403;BME280;47427;51.976;5.326;2023-05-14T07:27:30;101854.56;;;22.43;62.56
45403;BME280;47427;51.976;5.326;2023-05-14T07:30:51;101852.78;;;24.18;57.96
45403;BME280;47427;51.976;5.326;2023-05-14T07:34:14;101849.72;;;24.49;53.98
45403;BME280;47427;51.976;5.326;2023-05-14T07:37:37;101859.66;;;23.72;55.08
45403;BME280;47427;51.976;5.326;2023-05-14T07:40:59;101845.00;;;23.24;55.81
45403;BME280;47427;51.976;5.326;2023-05-14T07:44:21;101855.50;;;22.43;57.61
45403;BME280;47427;51.976;5.326;2023-05-14T07:47:43;101843.47;;;23.82;54.97
45403;BME280;47427;51.976;5.326;2023-05-14T07:51:05;101844.69;;;26.18;50.07
45403;BME280;47427;51.976;5.326;2023-05-14T07:54:28;101846.81;;;26.82;46.52
45403;BME280;47427;51.976;5.326;2023-05-14T07:57:50;101840.75;;;27.06;46.04
45403;BME280;47427;51.976;5.326;2023-05-14T08:01:12;101850.38;;;26.82;45.18
45403;BME280;47427;51.976;5.326;2023-05-14T08:04:35;101838.09;;;27.70;43.54
45403;BME280;47427;51.976;5.326;2023-05-14T08:07:57;101844.94;;;28.68;41.72
45403;BME280;47427;51.976;5.326;2023-05-14T08:11:19;101838.94;;;29.62;39.89
45403;BME280;47427;51.976;5.326;2023-05-14T08:14:42;101831.53;;;29.68;37.60
45403;BME280;47427;51.976;5.326;2023-05-14T08:18:05;101844.91;;;29.71;38.64
45403;BME280;47427;51.976;5.326;2023-05-14T08:21:27;101849.66;;;30.12;37.49
45403;BME280;47427;51.976;5.326;2023-05-14T08:24:49;101837.47;;;31.10;36.29
45403;BME280;47427;51.976;5.326;2023-05-14T08:28:12;101842.47;;;30.56;36.52
45403;BME280;47427;51.976;5.326;2023-05-14T08:31:35;101834.34;;;30.99;36.09
45403;BME280;47427;51.976;5.326;2023-05-14T08:35:05;101836.69;;;31.87;33.90
45403;BME280;47427;51.976;5.326;2023-05-14T08:38:28;101840.09;;;32.49;32.99
45403;BME280;47427;51.976;5.326;2023-05-14T08:41:50;101835.28;;;33.08;31.92
45403;BME280;47427;51.976;5.326;2023-05-14T08:45:20;101831.28;;;33.65;30.99
45403;BME280;47427;51.976;5.326;2023-05-14T08:48:42;101825.38;;;34.68;29.28
45403;BME280;47427;51.976;5.326;2023-05-14T08:52:10;101818.44;;;34.93;28.24
45403;BME280;47427;51.976;5.326;2023-05-14T08:55:33;101821.78;;;35.71;27.00
45403;BME280;47427;51.976;5.326;2023-05-14T08:58:55;101819.25;;;36.24;26.67
45403;BME280;47427;51.976;5.326;2023-05-14T09:02:29;101809.38;;;36.88;26.94
45403;BME280;47427;51.976;5.326;2023-05-14T09:05:54;101808.03;;;37.21;24.30
45403;BME280;47427;51.976;5.326;2023-05-14T09:09:16;101805.50;;;37.18;24.77
45403;BME280;47427;51.976;5.326;2023-05-14T09:12:59;101808.56;;;37.14;25.15
45403;BME280;47427;51.976;5.326;2023-05-14T09:16:21;101795.38;;;36.80;25.22
45403;BME280;47427;51.976;5.326;2023-05-14T09:19:45;101790.56;;;36.44;25.60
45403;BME280;47427;51.976;5.326;2023-05-14T09:23:10;101787.41;;;36.50;24.89
45403;BME280;47427;51.976;5.326;2023-05-14T09:26:33;101791.28;;;36.33;25.00
45403;BME280;47427;51.976;5.326;2023-05-14T09:30:03;101786.22;;;37.71;24.04
45403;BME280;47427;51.976;5.326;2023-05-14T09:33:27;101784.19;;;37.99;22.54
45403;BME280;47427;51.976;5.326;2023-05-14T09:36:49;101779.59;;;38.47;22.40
45403;BME280;47427;51.976;5.326;2023-05-14T09:40:11;101775.78;;;39.19;21.32
45403;BME280;47427;51.976;5.326;2023-05-14T09:43:34;101763.19;;;39.28;21.34
45403;BME280;47427;51.976;5.326;2023-05-14T09:46:57;101767.75;;;39.95;21.36
45403;BME280;47427;51.976;5.326;2023-05-14T09:50:20;101764.59;;;40.11;20.86
45403;BME280;47427;51.976;5.326;2023-05-14T09:53:43;101765.28;;;40.56;20.43
45403;BME280;47427;51.976;5.326;2023-05-14T09:57:27;101765.47;;;41.18;19.77
45403;BME280;47427;51.976;5.326;2023-05-14T10:00:50;101759.84;;;41.29;18.95
45403;BME280;47427;51.976;5.326;2023-05-14T10:04:12;101759.75;;;41.50;19.88
45403;BME280;47427;51.976;5.326;2023-05-14T10:07:43;101760.09;;;42.07;19.37
45403;BME280;47427;51.976;5.326;2023-05-14T10:11:17;101751.81;;;42.75;19.00
45403;BME280;47427;51.976;5.326;2023-05-14T10:14:46;101759.81;;;42.78;19.25
45403;BME280;47427;51.976;5.326;2023-05-14T10:18:15;101749.28;;;43.01;17.96
45403;BME280;47427;51.976;5.326;2023-05-14T10:21:40;101747.38;;;40.41;19.74
45403;BME280;47427;51.976;5.326;2023-05-14T10:25:06;101740.34;;;42.21;18.68
45403;BME280;47427;51.976;5.326;2023-05-14T10:28:28;101739.59;;;42.87;18.23
45403;BME280;47427;51.976;5.326;2023-05-14T10:31:53;101734.09;;;43.15;18.54
45403;BME280;47427;51.976;5.326;2023-05-14T10:35:19;101735.41;;;42.83;18.29
45403;BME280;47427;51.976;5.326;2023-05-14T10:38:42;101721.59;;;42.63;18.55
45403;BME280;47427;51.976;5.326;2023-05-14T10:42:07;101729.00;;;43.29;18.09
45403;BME280;47427;51.976;5.326;2023-05-14T10:45:30;101719.31;;;44.17;17.63
45403;BME280;47427;51.976;5.326;2023-05-14T10:48:56;101713.16;;;43.77;16.88
45403;BME280;47427;51.976;5.326;2023-05-14T10:52:18;101713.88;;;43.97;16.27
45403;BME280;47427;51.976;5.326;2023-05-14T10:55:43;101712.34;;;44.12;16.40
45403;BME280;47427;51.976;5.326;2023-05-14T10:59:05;101703.28;;;44.46;16.34
45403;BME280;47427;51.976;5.326;2023-05-14T11:02:32;101705.38;;;44.70;16.41
45403;BME280;47427;51.976;5.326;2023-05-14T11:05:54;101707.88;;;44.55;16.30
45403;BME280;47427;51.976;5.326;2023-05-14T11:09:16;101704.13;;;44.65;16.00
45403;BME280;47427;51.976;5.326;2023-05-14T11:12:43;101704.09;;;44.21;16.74
45403;BME280;47427;51.976;5.326;2023-05-14T11:16:07;101685.41;;;43.51;16.68
45403;BME280;47427;51.976;5.326;2023-05-14T11:19:30;101687.84;;;44.00;17.19
45403;BME280;47427;51.976;5.326;2023-05-14T11:22:53;101683.72;;;44.40;17.13
45403;BME280;47427;51.976;5.326;2023-05-14T11:29:59;101686.00;;;45.05;15.44
45403;BME280;47427;51.976;5.326;2023-05-14T11:33:21;101690.66;;;45.81;15.74
45403;BME280;47427;51.976;5.326;2023-05-14T11:36:43;101675.72;;;44.37;16.50
45403;BME280;47427;51.976;5.326;2023-05-14T11:40:25;101669.50;;;44.17;15.85
45403;BME280;47427;51.976;5.326;2023-05-14T11:43:48;101658.13;;;43.84;16.15
45403;BME280;47427;51.976;5.326;2023-05-14T11:47:11;101653.63;;;42.72;17.03
45403;BME280;47427;51.976;5.326;2023-05-14T11:50:35;101664.47;;;41.37;18.32
45403;BME280;47427;51.976;5.326;2023-05-14T11:53:58;101652.41;;;40.88;19.04
45403;BME280;47427;51.976;5.326;2023-05-14T11:57:21;101645.53;;;40.52;19.23
45403;BME280;47427;51.976;5.326;2023-05-14T12:00:49;101649.75;;;39.82;19.11
45403;BME280;47427;51.976;5.326;2023-05-14T12:04:12;101644.13;;;39.29;19.70
45403;BME280;47427;51.976;5.326;2023-05-14T12:07:35;101647.81;;;38.49;20.14
45403;BME280;47427;51.976;5.326;2023-05-14T12:11:00;101638.22;;;37.84;21.20
45403;BME280;47427;51.976;5.326;2023-05-14T12:14:23;101630.78;;;37.62;20.48
45403;BME280;47427;51.976;5.326;2023-05-14T12:17:50;101629.19;;;39.10;20.28
45403;BME280;47427;51.976;5.326;2023-05-14T12:21:13;101628.63;;;40.57;18.53
45403;BME280;47427;51.976;5.326;2023-05-14T12:24:37;101636.75;;;41.99;18.18
45403;BME280;47427;51.976;5.326;2023-05-14T12:28:13;101623.44;;;42.98;17.16
45403;BME280;47427;51.976;5.326;2023-05-14T12:31:35;101621.53;;;41.35;19.13
45403;BME280;47427;51.976;5.326;2023-05-14T12:34:59;101624.69;;;42.10;19.20
45403;BME280;47427;51.976;5.326;2023-05-14T12:38:21;101613.13;;;41.27;19.91
45403;BME280;47427;51.976;5.326;2023-05-14T12:41:44;101616.97;;;40.74;20.26
45403;BME280;47427;51.976;5.326;2023-05-14T12:45:06;101604.78;;;39.83;20.72
45403;BME280;47427;51.976;5.326;2023-05-14T12:48:29;101608.22;;;40.59;20.49
45403;BME280;47427;51.976;5.326;2023-05-14T12:51:52;101604.16;;;40.12;21.04
45403;BME280;47427;51.976;5.326;2023-05-14T12:55:14;101601.03;;;39.73;21.01
45403;BME280;47427;51.976;5.326;2023-05-14T12:58:37;101600.19;;;40.04;20.74
45403;BME280;47427;51.976;5.326;2023-05-14T13:02:18;101591.47;;;39.99;20.54
45403;BME280;47427;51.976;5.326;2023-05-14T13:05:42;101591.06;;;40.46;20.66
45403;BME280;47427;51.976;5.326;2023-05-14T13:09:05;101588.81;;;39.22;21.72
45403;BME280;47427;51.976;5.326;2023-05-14T13:12:27;101584.88;;;39.04;21.84
45403;BME280;47427;51.976;5.326;2023-05-14T13:16:09;101581.31;;;38.23;21.75
45403;BME280;47427;51.976;5.326;2023-05-14T13:19:32;101578.56;;;38.11;22.73
45403;BME280;47427;51.976;5.326;2023-05-14T13:22:55;101575.16;;;38.54;21.97
45403;BME280;47427;51.976;5.326;2023-05-14T13:26:17;101586.88;;;38.45;21.51
45403;BME280;47427;51.976;5.326;2023-05-14T13:29:39;101580.72;;;38.30;22.36
45403;BME280;47427;51.976;5.326;2023-05-14T13:33:02;101575.72;;;38.24;20.44
45403;BME280;47427;51.976;5.326;2023-05-14T13:36:25;101576.75;;;37.03;21.01
45403;BME280;47427;51.976;5.326;2023-05-14T13:39:46;101572.66;;;36.59;22.87
45403;BME280;47427;51.976;5.326;2023-05-14T13:43:09;101568.94;;;35.81;21.35
45403;BME280;47427;51.976;5.326;2023-05-14T13:46:31;101561.34;;;33.73;23.44
45403;BME280;47427;51.976;5.326;2023-05-14T13:49:54;101554.25;;;31.90;24.79
45403;BME280;47427;51.976;5.326;2023-05-14T13:53:19;101551.50;;;29.80;27.72
45403;BME280;47427;51.976;5.326;2023-05-14T13:56:42;101550.16;;;29.02;30.71
45403;BME280;47427;51.976;5.326;2023-05-14T14:00:05;101554.75;;;28.53;32.13
45403;BME280;47427;51.976;5.326;2023-05-14T14:03:29;101552.56;;;28.14;33.25
45403;BME280;47427;51.976;5.326;2023-05-14T14:06:50;101559.38;;;28.24;33.53
45403;BME280;47427;51.976;5.326;2023-05-14T14:10:32;101553.84;;;28.27;33.50
45403;BME280;47427;51.976;5.326;2023-05-14T14:13:55;101555.19;;;29.35;32.56
45403;BME280;47427;51.976;5.326;2023-05-14T14:17:17;101553.31;;;30.61;30.85
45403;BME280;47427;51.976;5.326;2023-05-14T14:20:40;101542.19;;;31.43;29.82
45403;BME280;47427;51.976;5.326;2023-05-14T14:24:02;101547.16;;;32.22;29.03
45403;BME280;47427;51.976;5.326;2023-05-14T14:27:24;101547.75;;;32.62;28.99
45403;BME280;47427;51.976;5.326;2023-05-14T14:30:46;101542.91;;;32.51;28.66
45403;BME280;47427;51.976;5.326;2023-05-14T14:34:09;101533.94;;;32.16;29.71
45403;BME280;47427;51.976;5.326;2023-05-14T14:37:31;101534.31;;;31.73;29.22
45403;BME280;47427;51.976;5.326;2023-05-14T14:40:53;101540.91;;;31.31;29.64
45403;BME280;47427;51.976;5.326;2023-05-14T14:44:15;101541.00;;;30.73;30.51
45403;BME280;47427;51.976;5.326;2023-05-14T14:47:43;101539.22;;;30.53;30.77
45403;BME280;47427;51.976;5.326;2023-05-14T14:51:07;101524.25;;;30.26;31.44
45403;BME280;47427;51.976;5.326;2023-05-14T14:54:30;101528.56;;;30.69;32.10
45403;BME280;47427;51.976;5.326;2023-05-14T14:57:51;101529.97;;;30.97;30.17
45403;BME280;47427;51.976;5.326;2023-05-14T15:01:14;101536.09;;;31.38;29.04
45403;BME280;47427;51.976;5.326;2023-05-14T15:04:38;101534.63;;;31.85;29.73
45403;BME280;47427;51.976;5.326;2023-05-14T15:07:59;101530.41;;;31.79;28.45
45403;BME280;47427;51.976;5.326;2023-05-14T15:11:25;101529.25;;;31.12;27.58
45403;BME280;47427;51.976;5.326;2023-05-14T15:14:50;101533.69;;;30.94;28.58
45403;BME280;47427;51.976;5.326;2023-05-14T15:18:15;101527.94;;;30.83;26.71
45403;BME280;47427;51.976;5.326;2023-05-14T15:21:38;101530.28;;;31.46;28.05
45403;BME280;47427;51.976;5.326;2023-05-14T15:24:59;101518.91;;;31.74;27.94
45403;BME280;47427;51.976;5.326;2023-05-14T15:28:22;101524.34;;;30.82;27.21
45403;BME280;47427;51.976;5.326;2023-05-14T15:31:45;101519.50;;;29.69;27.44
45403;BME280;47427;51.976;5.326;2023-05-14T15:35:07;101520.03;;;29.98;28.66
45403;BME280;47427;51.976;5.326;2023-05-14T15:38:30;101512.41;;;29.87;27.05
45403;BME280;47427;51.976;5.326;2023-05-14T15:41:51;101508.25;;;29.58;27.74
45403;BME280;47427;51.976;5.326;2023-05-14T15:45:14;101509.78;;;29.21;28.58
45403;BME280;47427;51.976;5.326;2023-05-14T15:48:37;101515.53;;;28.90;28.65
45403;BME280;47427;51.976;5.326;2023-05-14T15:51:58;101506.31;;;28.72;27.67
45403;BME280;47427;51.976;5.326;2023-05-14T15:55:22;101502.09;;;27.64;29.31
45403;BME280;47427;51.976;5.326;2023-05-14T15:59:03;101497.50;;;26.57;29.59
45403;BME280;47427;51.976;5.326;2023-05-14T16:02:26;101494.22;;;26.13;31.26
45403;BME280;47427;51.976;5.326;2023-05-14T16:05:51;101499.81;;;26.05;31.53
45403;BME280;47427;51.976;5.326;2023-05-14T16:09:13;101500.19;;;25.57;32.79
45403;BME280;47427;51.976;5.326;2023-05-14T16:12:36;101499.50;;;25.49;33.42
45403;BME280;47427;51.976;5.326;2023-05-14T16:15:58;101501.38;;;25.80;33.94
45403;BME280;47427;51.976;5.326;2023-05-14T16:19:21;101501.28;;;25.86;33.13
45403;BME280;47427;51.976;5.326;2023-05-14T16:22:44;101495.13;;;25.79;33.19
45403;BME280;47427;51.976;5.326;2023-05-14T16:26:25;101499.81;;;25.37;32.95
45403;BME280;47427;51.976;5.326;2023-05-14T16:29:47;101503.97;;;25.11;32.89
45403;BME280;47427;51.976;5.326;2023-05-14T16:33:10;101509.63;;;24.99;32.98
45403;BME280;47427;51.976;5.326;2023-05-14T16:36:40;101514.91;;;24.64;33.85
45403;BME280;47427;51.976;5.326;2023-05-14T16:40:04;101518.91;;;24.42;34.13
45403;BME280;47427;51.976;5.326;2023-05-14T16:43:25;101510.25;;;24.29;35.18
45403;BME280;47427;51.976;5.326;2023-05-14T16:47:06;101511.72;;;23.99;35.91
45403;BME280;47427;51.976;5.326;2023-05-14T16:50:28;101514.75;;;23.81;36.97
45403;BME280;47427;51.976;5.326;2023-05-14T16:53:49;101521.22;;;23.66;39.00
45403;BME280;47427;51.976;5.326;2023-05-14T16:57:12;101523.56;;;23.33;39.32
45403;BME280;47427;51.976;5.326;2023-05-14T17:00:34;101515.63;;;23.25;40.53
45403;BME280;47427;51.976;5.326;2023-05-14T17:03:56;101523.91;;;23.10;41.98
45403;BME280;47427;51.976;5.326;2023-05-14T17:07:18;101533.06;;;22.90;43.23
45403;BME280;47427;51.976;5.326;2023-05-14T17:10:40;101534.19;;;22.74;43.71
45403;BME280;47427;51.976;5.326;2023-05-14T17:14:03;101530.75;;;22.63;46.16
45403;BME280;47427;51.976;5.326;2023-05-14T17:17:25;101530.13;;;22.42;48.32
45403;BME280;47427;51.976;5.326;2023-05-14T17:20:47;101530.16;;;22.41;50.08
45403;BME280;47427;51.976;5.326;2023-05-14T17:24:09;101530.38;;;22.18;51.86
45403;BME280;47427;51.976;5.326;2023-05-14T17:27:32;101531.53;;;21.92;53.64
45403;BME280;47427;51.976;5.326;2023-05-14T17:30:54;101525.63;;;21.58;55.13
45403;BME280;47427;51.976;5.326;2023-05-14T17:34:17;101529.19;;;21.58;55.32
45403;BME280;47427;51.976;5.326;2023-05-14T17:37:39;101531.00;;;21.52;56.72
45403;BME280;47427;51.976;5.326;2023-05-14T17:41:04;101524.88;;;21.37;57.76
45403;BME280;47427;51.976;5.326;2023-05-14T17:44:27;101533.91;;;21.15;58.95
45403;BME280;47427;51.976;5.326;2023-05-14T17:47:48;101533.09;;;21.07;60.06
45403;BME280;47427;51.976;5.326;2023-05-14T17:51:12;101541.16;;;20.91;61.61
45403;BME280;47427;51.976;5.326;2023-05-14T17:54:35;101543.06;;;20.69;62.34
45403;BME280;47427;51.976;5.326;2023-05-14T17:57:56;101545.78;;;20.62;62.69